sensor_id;sensor_type;location;lat;lon;timestamp;temperature;humidity
8487;DHT22;4280;50.534;8.708;2022-12-18T02:12:31;-6.60;1.00
8487;DHT22;4280;50.534;8.708;2022-12-18T02:15:07;-8.30;1.00
8487;DHT22;4280;50.534;8.708;2022-12-18T02:17:43;-8.40;1.00
8487;DHT22;4280;50.534;8.708;2022-12-18T02:20:18;-8.40;1.00
8487;DHT22;4280;50.534;8.708;2022-12-18T02:22:59;-8.30;1.00
8487;DHT22;4280;50.534;8.708;2022-12-18T02:25:40;-8.40;1.00
8487;DHT22;4280;50.534;8.708;2022-12-18T02:28:25;-8.40;1.00
8487;DHT22;4280;50.534;8.708;2022-12-18T02:31:01;-8.50;1.00
8487;DHT22;4280;50.534;8.708;2022-12-18T02:33:32;-8.60;1.00
8487;DHT22;4280;50.534;8.708;2022-12-18T02:36:04;-8.60;1.00
8487;DHT22;4280;50.534;8.708;2022-12-18T02:38:36;-8.70;1.00
8487;DHT22;4280;50.534;8.708;2022-12-18T02:41:13;-8.80;1.00
8487;DHT22;4280;50.534;8.708;2022-12-18T02:43:53;-8.80;1.00
8487;DHT22;4280;50.534;8.708;2022-12-18T02:46:28;-8.90;1.00
8487;DHT22;4280;50.534;8.708;2022-12-18T02:49:06;-8.90;1.00
8487;DHT22;4280;50.534;8.708;2022-12-18T02:51:47;-8.80;1.00
8487;DHT22;4280;50.534;8.708;2022-12-18T02:54:23;-8.70;1.00
8487;DHT22;4280;50.534;8.708;2022-12-18T02:57:05;-8.60;1.00
8487;DHT22;4280;50.534;8.708;2022-12-18T02:59:46;-8.40;1.00
8487;DHT22;4280;50.534;8.708;2022-12-18T03:02:20;-8.30;1.00
8487;DHT22;4280;50.534;8.708;2022-12-18T03:04:55;-8.20;1.00
8487;DHT22;4280;50.534;8.708;2022-12-18T03:07:33;-8.30;1.00
8487;DHT22;4280;50.534;8.708;2022-12-18T03:10:09;-8.30;1.00
8487;DHT22;4280;50.534;8.708;2022-12-18T03:12:46;-8.30;1.00
8487;DHT22;4280;50.534;8.708;2022-12-18T03:15:21;-8.20;1.00
8487;DHT22;4280;50.534;8.708;2022-12-18T03:18:04;-8.20;1.00
8487;DHT22;4280;50.534;8.708;2022-12-18T03:20:36;-8.10;1.00
8487;DHT22;4280;50.534;8.708;2022-12-18T03:23:09;-8.10;1.00
8487;DHT22;4280;50.534;8.708;2022-12-18T03:25:44;-8.10;1.00
8487;DHT22;4280;50.534;8.708;2022-12-18T03:28:19;-8.20;1.00
8487;DHT22;4280;50.534;8.708;2022-12-18T03:30:58;-8.20;1.00
8487;DHT22;4280;50.534;8.708;2022-12-18T03:33:30;-8.30;1.00
8487;DHT22;4280;50.534;8.708;2022-12-18T03:36:02;-8.40;1.00
8487;DHT22;4280;50.534;8.708;2022-12-18T03:38:32;-8.60;1.00
8487;DHT22;4280;50.534;8.708;2022-12-18T03:41:03;-8.80;1.00
8487;DHT22;4280;50.534;8.708;2022-12-18T03:44:01;-9.00;1.00
8487;DHT22;4280;50.534;8.708;2022-12-18T03:46:41;-9.10;1.00
8487;DHT22;4280;50.534;8.708;2022-12-18T03:49:18;-8.80;1.00
8487;DHT22;4280;50.534;8.708;2022-12-18T03:51:57;-8.50;1.00
8487;DHT22;4280;50.534;8.708;2022-12-18T03:54:31;-8.40;1.00
8487;DHT22;4280;50.534;8.708;2022-12-18T03:57:11;-8.30;1.00
8487;DHT22;4280;50.534;8.708;2022-12-18T03:59:47;-8.50;1.00
8487;DHT22;4280;50.534;8.708;2022-12-18T04:02:23;-8.80;1.00
8487;DHT22;4280;50.534;8.708;2022-12-18T04:04:57;-9.00;1.00
8487;DHT22;4280;50.534;8.708;2022-12-18T04:07:30;-9.20;1.00
8487;DHT22;4280;50.534;8.708;2022-12-18T04:10:03;-9.40;1.00
8487;DHT22;4280;50.534;8.708;2022-12-18T04:12:49;-9.50;1.00
8487;DHT22;4280;50.534;8.708;2022-12-18T04:15:31;-9.60;1.00
8487;DHT22;4280;50.534;8.708;2022-12-18T04:18:08;-9.70;1.00
8487;DHT22;4280;50.534;8.708;2022-12-18T04:20:48;-9.30;1.00
8487;DHT22;4280;50.534;8.708;2022-12-18T04:23:23;-8.90;1.00
8487;DHT22;4280;50.534;8.708;2022-12-18T04:25:59;-9.20;1.00
8487;DHT22;4280;50.534;8.708;2022-12-18T04:29:09;-9.30;1.00
8487;DHT22;4280;50.534;8.708;2022-12-18T04:31:47;-9.50;1.00
8487;DHT22;4280;50.534;8.708;2022-12-18T04:34:26;-9.60;1.00
8487;DHT22;4280;50.534;8.708;2022-12-18T04:37:03;-9.80;1.00
8487;DHT22;4280;50.534;8.708;2022-12-18T04:39:40;-9.90;1.00
8487;DHT22;4280;50.534;8.708;2022-12-18T04:42:21;-9.90;1.00
8487;DHT22;4280;50.534;8.708;2022-12-18T04:44:58;-9.90;1.00
8487;DHT22;4280;50.534;8.708;2022-12-18T04:47:36;-10.00;1.00
8487;DHT22;4280;50.534;8.708;2022-12-18T04:50:11;-10.00;1.00
8487;DHT22;4280;50.534;8.708;2022-12-18T04:52:49;-10.00;1.00
8487;DHT22;4280;50.534;8.708;2022-12-18T04:55:26;-10.10;1.00
8487;DHT22;4280;50.534;8.708;2022-12-18T04:58:00;-10.10;1.00
8487;DHT22;4280;50.534;8.708;2022-12-18T05:00:35;-10.10;1.00
8487;DHT22;4280;50.534;8.708;2022-12-18T05:03:13;-10.10;1.00
8487;DHT22;4280;50.534;8.708;2022-12-18T05:05:50;-10.10;1.00
8487;DHT22;4280;50.534;8.708;2022-12-18T05:08:24;-10.10;1.00
8487;DHT22;4280;50.534;8.708;2022-12-18T05:10:59;-10.00;1.00
8487;DHT22;4280;50.534;8.708;2022-12-18T05:13:37;-10.00;1.00
8487;DHT22;4280;50.534;8.708;2022-12-18T05:16:13;-10.10;1.00
8487;DHT22;4280;50.534;8.708;2022-12-18T05:18:51;-10.20;1.00
8487;DHT22;4280;50.534;8.708;2022-12-18T05:21:26;-10.20;1.00
8487;DHT22;4280;50.534;8.708;2022-12-18T05:23:59;-10.30;1.00
8487;DHT22;4280;50.534;8.708;2022-12-18T05:26:59;-10.30;1.00
8487;DHT22;4280;50.534;8.708;2022-12-18T05:29:46;-10.40;1.00
8487;DHT22;4280;50.534;8.708;2022-12-18T05:32:21;-10.30;1.00
8487;DHT22;4280;50.534;8.708;2022-12-18T05:34:59;-10.30;1.00
8487;DHT22;4280;50.534;8.708;2022-12-18T05:37:33;-10.30;1.00
8487;DHT22;4280;50.534;8.708;2022-12-18T05:40:10;-10.30;1.00
8487;DHT22;4280;50.534;8.708;2022-12-18T05:42:45;-10.30;1.00
8487;DHT22;4280;50.534;8.708;2022-12-18T05:45:20;-10.40;1.00
8487;DHT22;4280;50.534;8.708;2022-12-18T05:47:55;-10.40;1.00
8487;DHT22;4280;50.534;8.708;2022-12-18T05:50:32;-10.40;1.00
8487;DHT22;4280;50.534;8.708;2022-12-18T05:53:08;-10.50;1.00
8487;DHT22;4280;50.534;8.708;2022-12-18T05:55:43;-10.50;1.00
8487;DHT22;4280;50.534;8.708;2022-12-18T05:58:18;-10.50;1.00
8487;DHT22;4280;50.534;8.708;2022-12-18T06:00:53;-10.50;1.00
8487;DHT22;4280;50.534;8.708;2022-12-18T06:03:29;-10.50;1.00
8487;DHT22;4280;50.534;8.708;2022-12-18T06:06:15;-10.50;1.00
8487;DHT22;4280;50.534;8.708;2022-12-18T06:08:48;-10.50;1.00
8487;DHT22;4280;50.534;8.708;2022-12-18T06:11:21;-10.60;1.00
8487;DHT22;4280;50.534;8.708;2022-12-18T06:13:53;-10.60;1.00
8487;DHT22;4280;50.534;8.708;2022-12-18T06:16:25;-10.60;1.00
8487;DHT22;4280;50.534;8.708;2022-12-18T06:18:55;-10.70;1.00
8487;DHT22;4280;50.534;8.708;2022-12-18T06:21:28;-10.70;1.00
8487;DHT22;4280;50.534;8.708;2022-12-18T06:23:59;-10.70;1.00
8487;DHT22;4280;50.534;8.708;2022-12-18T06:26:29;-10.70;1.00
8487;DHT22;4280;50.534;8.708;2022-12-18T06:28:59;-10.70;1.00
8487;DHT22;4280;50.534;8.708;2022-12-18T06:31:29;-10.70;1.00
8487;DHT22;4280;50.534;8.708;2022-12-18T06:34:01;-10.80;1.00
8487;DHT22;4280;50.534;8.708;2022-12-18T06:36:35;-10.80;1.00
8487;DHT22;4280;50.534;8.708;2022-12-18T06:39:05;-10.80;1.00
8487;DHT22;4280;50.534;8.708;2022-12-18T06:41:35;-10.80;1.00
8487;DHT22;4280;50.534;8.708;2022-12-18T06:44:05;-10.90;1.00
8487;DHT22;4280;50.534;8.708;2022-12-18T06:46:35;-10.50;1.00
8487;DHT22;4280;50.534;8.708;2022-12-18T06:49:05;-10.80;1.00
8487;DHT22;4280;50.534;8.708;2022-12-18T06:51:38;-10.90;1.00
8487;DHT22;4280;50.534;8.708;2022-12-18T06:54:10;-11.00;1.00
8487;DHT22;4280;50.534;8.708;2022-12-18T06:56:40;-11.00;1.00
8487;DHT22;4280;50.534;8.708;2022-12-18T06:59:09;-11.00;1.00
8487;DHT22;4280;50.534;8.708;2022-12-18T07:01:42;-11.00;1.00
8487;DHT22;4280;50.534;8.708;2022-12-18T07:04:15;-10.90;1.00
8487;DHT22;4280;50.534;8.708;2022-12-18T07:06:50;-10.70;1.00
8487;DHT22;4280;50.534;8.708;2022-12-18T07:09:20;-10.50;1.00
8487;DHT22;4280;50.534;8.708;2022-12-18T07:11:50;-10.40;1.00
8487;DHT22;4280;50.534;8.708;2022-12-18T07:14:20;-10.40;1.00
8487;DHT22;4280;50.534;8.708;2022-12-18T07:16:50;-10.40;1.00
8487;DHT22;4280;50.534;8.708;2022-12-18T07:19:20;-10.40;1.00
8487;DHT22;4280;50.534;8.708;2022-12-18T07:21:53;-10.50;1.00
8487;DHT22;4280;50.534;8.708;2022-12-18T07:24:23;-10.60;1.00
8487;DHT22;4280;50.534;8.708;2022-12-18T07:26:53;-10.70;1.00
8487;DHT22;4280;50.534;8.708;2022-12-18T07:29:24;-10.80;1.00
8487;DHT22;4280;50.534;8.708;2022-12-18T07:31:55;-10.90;1.00
8487;DHT22;4280;50.534;8.708;2022-12-18T07:34:25;-10.90;1.00
8487;DHT22;4280;50.534;8.708;2022-12-18T07:36:58;-10.90;1.00
8487;DHT22;4280;50.534;8.708;2022-12-18T07:39:28;-11.10;1.00
8487;DHT22;4280;50.534;8.708;2022-12-18T07:42:03;-11.20;1.00
8487;DHT22;4280;50.534;8.708;2022-12-18T07:44:45;-11.20;1.00
8487;DHT22;4280;50.534;8.708;2022-12-18T07:47:15;-11.30;1.00
8487;DHT22;4280;50.534;8.708;2022-12-18T07:49:46;-11.30;1.00
8487;DHT22;4280;50.534;8.708;2022-12-18T07:52:19;-11.30;1.00
8487;DHT22;4280;50.534;8.708;2022-12-18T07:54:53;-11.30;1.00
8487;DHT22;4280;50.534;8.708;2022-12-18T07:57:23;-11.30;1.00
8487;DHT22;4280;50.534;8.708;2022-12-18T08:00:16;-11.30;1.00
8487;DHT22;4280;50.534;8.708;2022-12-18T08:02:52;-11.20;1.00
8487;DHT22;4280;50.534;8.708;2022-12-18T08:05:22;-11.20;1.00
8487;DHT22;4280;50.534;8.708;2022-12-18T08:07:55;-11.10;1.00
8487;DHT22;4280;50.534;8.708;2022-12-18T08:10:25;-11.00;1.00
8487;DHT22;4280;50.534;8.708;2022-12-18T08:12:55;-10.90;1.00
8487;DHT22;4280;50.534;8.708;2022-12-18T08:15:30;-10.80;1.00
8487;DHT22;4280;50.534;8.708;2022-12-18T08:18:00;-10.80;1.00
8487;DHT22;4280;50.534;8.708;2022-12-18T08:20:31;-10.70;1.00
8487;DHT22;4280;50.534;8.708;2022-12-18T08:23:04;-10.70;1.00
8487;DHT22;4280;50.534;8.708;2022-12-18T08:25:34;-10.70;1.00
8487;DHT22;4280;50.534;8.708;2022-12-18T08:28:04;-10.60;1.00
8487;DHT22;4280;50.534;8.708;2022-12-18T08:30:34;-10.50;1.00
8487;DHT22;4280;50.534;8.708;2022-12-18T08:33:07;-10.40;1.00
8487;DHT22;4280;50.534;8.708;2022-12-18T08:35:37;-10.20;1.00
8487;DHT22;4280;50.534;8.708;2022-12-18T08:38:14;-10.10;1.00
8487;DHT22;4280;50.534;8.708;2022-12-18T08:40:44;-10.00;1.00
8487;DHT22;4280;50.534;8.708;2022-12-18T08:43:14;-9.90;1.00
8487;DHT22;4280;50.534;8.708;2022-12-18T08:45:57;-9.80;1.00
8487;DHT22;4280;50.534;8.708;2022-12-18T08:48:27;-9.60;1.00
8487;DHT22;4280;50.534;8.708;2022-12-18T08:50:57;-9.60;1.00
8487;DHT22;4280;50.534;8.708;2022-12-18T08:53:30;-9.40;1.00
8487;DHT22;4280;50.534;8.708;2022-12-18T08:56:01;-9.20;1.00
8487;DHT22;4280;50.534;8.708;2022-12-18T08:58:31;-9.30;1.00
8487;DHT22;4280;50.534;8.708;2022-12-18T09:01:02;-9.30;1.00
8487;DHT22;4280;50.534;8.708;2022-12-18T09:03:33;-9.30;1.00
8487;DHT22;4280;50.534;8.708;2022-12-18T09:06:07;-9.20;1.00
8487;DHT22;4280;50.534;8.708;2022-12-18T09:08:40;-9.10;1.00
8487;DHT22;4280;50.534;8.708;2022-12-18T09:11:11;-9.10;1.00
8487;DHT22;4280;50.534;8.708;2022-12-18T09:13:44;-9.00;1.00
8487;DHT22;4280;50.534;8.708;2022-12-18T09:16:14;-8.90;1.00
8487;DHT22;4280;50.534;8.708;2022-12-18T09:18:45;-8.90;1.00
8487;DHT22;4280;50.534;8.708;2022-12-18T09:21:16;-8.80;1.00
8487;DHT22;4280;50.534;8.708;2022-12-18T09:23:51;-8.70;1.00
8487;DHT22;4280;50.534;8.708;2022-12-18T09:26:22;-8.70;1.00
8487;DHT22;4280;50.534;8.708;2022-12-18T09:28:53;-8.60;1.00
8487;DHT22;4280;50.534;8.708;2022-12-18T09:31:23;-8.60;1.00
8487;DHT22;4280;50.534;8.708;2022-12-18T09:33:54;-8.60;1.00
8487;DHT22;4280;50.534;8.708;2022-12-18T09:36:24;-8.50;1.00
8487;DHT22;4280;50.534;8.708;2022-12-18T09:39:02;-8.40;1.00
8487;DHT22;4280;50.534;8.708;2022-12-18T09:41:44;-8.20;1.00
8487;DHT22;4280;50.534;8.708;2022-12-18T09:44:18;-8.20;1.00
8487;DHT22;4280;50.534;8.708;2022-12-18T09:46:53;-8.00;1.00
8487;DHT22;4280;50.534;8.708;2022-12-18T09:49:27;-7.90;1.00
8487;DHT22;4280;50.534;8.708;2022-12-18T09:52:00;-7.70;1.00
8487;DHT22;4280;50.534;8.708;2022-12-18T09:54:35;-7.50;1.00
8487;DHT22;4280;50.534;8.708;2022-12-18T09:57:10;-7.40;1.00
8487;DHT22;4280;50.534;8.708;2022-12-18T09:59:42;-7.40;1.00
8487;DHT22;4280;50.534;8.708;2022-12-18T10:02:15;-7.30;1.00
8487;DHT22;4280;50.534;8.708;2022-12-18T10:04:50;-7.20;1.00
8487;DHT22;4280;50.534;8.708;2022-12-18T10:07:28;-7.10;1.00
8487;DHT22;4280;50.534;8.708;2022-12-18T10:10:12;-7.10;1.00
8487;DHT22;4280;50.534;8.708;2022-12-18T10:12:49;-6.90;1.00
8487;DHT22;4280;50.534;8.708;2022-12-18T10:15:30;-6.80;1.00
8487;DHT22;4280;50.534;8.708;2022-12-18T10:18:06;-6.70;1.00
8487;DHT22;4280;50.534;8.708;2022-12-18T10:20:48;-6.60;1.00
8487;DHT22;4280;50.534;8.708;2022-12-18T10:23:21;-6.50;1.00
8487;DHT22;4280;50.534;8.708;2022-12-18T10:26:00;-6.40;1.00
8487;DHT22;4280;50.534;8.708;2022-12-18T10:28:35;-6.30;1.00
8487;DHT22;4280;50.534;8.708;2022-12-18T10:31:06;-6.20;1.00
8487;DHT22;4280;50.534;8.708;2022-12-18T10:33:37;-6.10;1.00
8487;DHT22;4280;50.534;8.708;2022-12-18T10:36:08;-5.90;1.00
8487;DHT22;4280;50.534;8.708;2022-12-18T10:38:40;-5.70;1.00
8487;DHT22;4280;50.534;8.708;2022-12-18T10:41:25;-5.40;1.00
8487;DHT22;4280;50.534;8.708;2022-12-18T10:44:12;-5.20;1.00
8487;DHT22;4280;50.534;8.708;2022-12-18T10:46:45;-4.90;1.00
8487;DHT22;4280;50.534;8.708;2022-12-18T10:49:19;-4.80;1.00
8487;DHT22;4280;50.534;8.708;2022-12-18T10:51:52;-4.80;1.00
8487;DHT22;4280;50.534;8.708;2022-12-18T10:54:35;-4.60;1.00
8487;DHT22;4280;50.534;8.708;2022-12-18T10:57:28;-4.60;1.00
8487;DHT22;4280;50.534;8.708;2022-12-18T11:00:03;-4.60;1.00
8487;DHT22;4280;50.534;8.708;2022-12-18T11:02:50;-4.60;1.00
8487;DHT22;4280;50.534;8.708;2022-12-18T11:05:25;-4.60;1.00
8487;DHT22;4280;50.534;8.708;2022-12-18T11:07:56;-4.60;1.00
8487;DHT22;4280;50.534;8.708;2022-12-18T11:10:28;-4.50;1.00
8487;DHT22;4280;50.534;8.708;2022-12-18T11:13:18;-4.50;1.00
8487;DHT22;4280;50.534;8.708;2022-12-18T11:15:50;-4.40;1.00
8487;DHT22;4280;50.534;8.708;2022-12-18T11:18:22;-4.30;1.00
8487;DHT22;4280;50.534;8.708;2022-12-18T11:20:56;-4.30;1.00
8487;DHT22;4280;50.534;8.708;2022-12-18T11:23:27;-4.20;1.00
8487;DHT22;4280;50.534;8.708;2022-12-18T11:25:58;-4.20;1.00
8487;DHT22;4280;50.534;8.708;2022-12-18T11:28:36;-4.10;1.00
8487;DHT22;4280;50.534;8.708;2022-12-18T11:31:18;-4.10;1.00
8487;DHT22;4280;50.534;8.708;2022-12-18T11:33:53;-4.00;1.00
8487;DHT22;4280;50.534;8.708;2022-12-18T11:36:57;-4.00;1.00
8487;DHT22;4280;50.534;8.708;2022-12-18T11:39:30;-4.00;1.00
8487;DHT22;4280;50.534;8.708;2022-12-18T11:42:09;-4.00;1.00
8487;DHT22;4280;50.534;8.708;2022-12-18T11:44:45;-4.10;1.00
8487;DHT22;4280;50.534;8.708;2022-12-18T11:47:20;-4.10;1.00
8487;DHT22;4280;50.534;8.708;2022-12-18T11:50:00;-4.10;1.00
8487;DHT22;4280;50.534;8.708;2022-12-18T11:52:37;-4.20;1.00
8487;DHT22;4280;50.534;8.708;2022-12-18T11:55:11;-4.20;1.00
8487;DHT22;4280;50.534;8.708;2022-12-18T11:57:45;-4.20;1.00
8487;DHT22;4280;50.534;8.708;2022-12-18T12:00:23;-4.30;1.00
8487;DHT22;4280;50.534;8.708;2022-12-18T12:03:00;-4.20;1.00
8487;DHT22;4280;50.534;8.708;2022-12-18T12:05:43;-4.20;1.00
8487;DHT22;4280;50.534;8.708;2022-12-18T12:08:23;-4.20;1.00
8487;DHT22;4280;50.534;8.708;2022-12-18T12:10:58;-4.10;1.00
8487;DHT22;4280;50.534;8.708;2022-12-18T12:13:37;-4.10;1.00
8487;DHT22;4280;50.534;8.708;2022-12-18T12:16:15;-4.10;1.00
8487;DHT22;4280;50.534;8.708;2022-12-18T12:19:02;-4.00;1.00
8487;DHT22;4280;50.534;8.708;2022-12-18T12:21:39;-3.90;1.00
8487;DHT22;4280;50.534;8.708;2022-12-18T12:24:20;-3.90;1.00
8487;DHT22;4280;50.534;8.708;2022-12-18T12:26:59;-4.00;1.00
8487;DHT22;4280;50.534;8.708;2022-12-18T12:29:37;-4.10;1.00
8487;DHT22;4280;50.534;8.708;2022-12-18T12:32:20;-4.10;1.00
8487;DHT22;4280;50.534;8.708;2022-12-18T12:34:58;-4.00;1.00
8487;DHT22;4280;50.534;8.708;2022-12-18T12:37:38;-3.90;1.00
8487;DHT22;4280;50.534;8.708;2022-12-18T12:40:13;-3.90;1.00
8487;DHT22;4280;50.534;8.708;2022-12-18T12:43:12;-4.00;1.00
8487;DHT22;4280;50.534;8.708;2022-12-18T12:45:51;-3.90;1.00
8487;DHT22;4280;50.534;8.708;2022-12-18T12:48:31;-4.00;1.00
8487;DHT22;4280;50.534;8.708;2022-12-18T12:51:06;-3.90;1.00
8487;DHT22;4280;50.534;8.708;2022-12-18T12:53:42;-3.90;1.00
8487;DHT22;4280;50.534;8.708;2022-12-18T12:56:13;-3.90;1.00
8487;DHT22;4280;50.534;8.708;2022-12-18T12:58:49;-3.90;1.00
8487;DHT22;4280;50.534;8.708;2022-12-18T13:01:25;-3.90;1.00
8487;DHT22;4280;50.534;8.708;2022-12-18T13:04:06;-3.90;1.00
8487;DHT22;4280;50.534;8.708;2022-12-18T13:06:43;-3.90;1.00
8487;DHT22;4280;50.534;8.708;2022-12-18T13:09:17;-3.90;1.00
8487;DHT22;4280;50.534;8.708;2022-12-18T13:11:47;-3.90;1.00
8487;DHT22;4280;50.534;8.708;2022-12-18T13:14:30;-3.90;1.00
8487;DHT22;4280;50.534;8.708;2022-12-18T13:20:08;-4.00;1.00
8487;DHT22;4280;50.534;8.708;2022-12-18T13:22:41;-4.00;1.00
8487;DHT22;4280;50.534;8.708;2022-12-18T13:28:04;-4.00;1.00
8487;DHT22;4280;50.534;8.708;2022-12-18T13:36:42;-4.20;1.00
8487;DHT22;4280;50.534;8.708;2022-12-18T13:48:19;-4.20;1.00
8487;DHT22;4280;50.534;8.708;2022-12-18T13:50:56;-4.20;1.00
8487;DHT22;4280;50.534;8.708;2022-12-18T13:53:34;-4.20;1.00
8487;DHT22;4280;50.534;8.708;2022-12-18T13:56:06;-4.20;1.00
8487;DHT22;4280;50.534;8.708;2022-12-18T13:58:37;-4.20;1.00
8487;DHT22;4280;50.534;8.708;2022-12-18T14:01:15;-4.20;1.00
8487;DHT22;4280;50.534;8.708;2022-12-18T14:06:38;-4.20;1.00
8487;DHT22;4280;50.534;8.708;2022-12-18T14:09:13;-4.20;1.00
8487;DHT22;4280;50.534;8.708;2022-12-18T14:11:46;-4.20;1.00
8487;DHT22;4280;50.534;8.708;2022-12-18T14:14:17;-4.20;1.00
8487;DHT22;4280;50.534;8.708;2022-12-18T14:16:49;-4.20;1.00
8487;DHT22;4280;50.534;8.708;2022-12-18T14:19:20;-4.30;1.00
8487;DHT22;4280;50.534;8.708;2022-12-18T14:21:50;-4.30;1.00
8487;DHT22;4280;50.534;8.708;2022-12-18T14:24:22;-4.30;1.00
8487;DHT22;4280;50.534;8.708;2022-12-18T14:26:52;-4.30;1.00
8487;DHT22;4280;50.534;8.708;2022-12-18T14:29:23;-4.30;1.00
8487;DHT22;4280;50.534;8.708;2022-12-18T14:32:05;-4.30;1.00
8487;DHT22;4280;50.534;8.708;2022-12-18T14:34:39;-4.30;1.00
8487;DHT22;4280;50.534;8.708;2022-12-18T14:37:10;-4.30;1.00
8487;DHT22;4280;50.534;8.708;2022-12-18T14:46:00;-4.40;1.00
8487;DHT22;4280;50.534;8.708;2022-12-18T14:48:33;-4.40;1.00
8487;DHT22;4280;50.534;8.708;2022-12-18T14:51:14;-4.40;1.00
8487;DHT22;4280;50.534;8.708;2022-12-18T14:53:46;-4.40;1.00
8487;DHT22;4280;50.534;8.708;2022-12-18T14:56:20;-4.40;1.00
8487;DHT22;4280;50.534;8.708;2022-12-18T14:58:54;-4.50;1.00
8487;DHT22;4280;50.534;8.708;2022-12-18T15:01:26;-4.50;1.00
8487;DHT22;4280;50.534;8.708;2022-12-18T15:03:58;-4.50;1.00
8487;DHT22;4280;50.534;8.708;2022-12-18T15:06:30;-4.50;1.00
8487;DHT22;4280;50.534;8.708;2022-12-18T15:09:03;-4.60;1.00
8487;DHT22;4280;50.534;8.708;2022-12-18T15:11:43;-4.60;1.00
8487;DHT22;4280;50.534;8.708;2022-12-18T15:17:15;-4.60;1.00
8487;DHT22;4280;50.534;8.708;2022-12-18T15:19:47;-4.60;1.00
8487;DHT22;4280;50.534;8.708;2022-12-18T15:22:20;-4.60;1.00
8487;DHT22;4280;50.534;8.708;2022-12-18T15:24:51;-4.60;1.00
8487;DHT22;4280;50.534;8.708;2022-12-18T15:27:26;-4.60;1.00
8487;DHT22;4280;50.534;8.708;2022-12-18T15:32:50;-4.50;1.00
8487;DHT22;4280;50.534;8.708;2022-12-18T15:35:21;-4.40;1.00
8487;DHT22;4280;50.534;8.708;2022-12-18T15:37:52;-4.40;1.00
8487;DHT22;4280;50.534;8.708;2022-12-18T15:40:23;-4.20;1.00
8487;DHT22;4280;50.534;8.708;2022-12-18T15:42:53;-4.20;1.00
8487;DHT22;4280;50.534;8.708;2022-12-18T15:45:39;-4.20;1.00
8487;DHT22;4280;50.534;8.708;2022-12-18T15:48:19;-4.20;1.00
8487;DHT22;4280;50.534;8.708;2022-12-18T15:50:50;-4.10;1.00
8487;DHT22;4280;50.534;8.708;2022-12-18T15:53:24;-4.20;1.00
8487;DHT22;4280;50.534;8.708;2022-12-18T15:55:58;-4.20;1.00
8487;DHT22;4280;50.534;8.708;2022-12-18T15:58:43;-4.20;1.00
8487;DHT22;4280;50.534;8.708;2022-12-18T16:01:16;-4.10;1.00
8487;DHT22;4280;50.534;8.708;2022-12-18T16:03:46;-4.10;1.00
8487;DHT22;4280;50.534;8.708;2022-12-18T16:06:16;-4.10;1.00
8487;DHT22;4280;50.534;8.708;2022-12-18T16:08:46;-4.10;1.00
8487;DHT22;4280;50.534;8.708;2022-12-18T16:11:19;-4.10;1.00
8487;DHT22;4280;50.534;8.708;2022-12-18T16:14:12;-4.00;1.00
8487;DHT22;4280;50.534;8.708;2022-12-18T16:16:50;-4.10;1.00
8487;DHT22;4280;50.534;8.708;2022-12-18T16:19:22;-4.10;1.00
8487;DHT22;4280;50.534;8.708;2022-12-18T16:21:52;-4.10;1.00
8487;DHT22;4280;50.534;8.708;2022-12-18T16:24:24;-4.10;1.00
8487;DHT22;4280;50.534;8.708;2022-12-18T16:26:56;-4.20;1.00
8487;DHT22;4280;50.534;8.708;2022-12-18T16:29:28;-4.20;1.00
8487;DHT22;4280;50.534;8.708;2022-12-18T16:32:02;-4.10;1.00
8487;DHT22;4280;50.534;8.708;2022-12-18T16:34:33;-4.10;1.00
8487;DHT22;4280;50.534;8.708;2022-12-18T16:37:04;-4.20;1.00
8487;DHT22;4280;50.534;8.708;2022-12-18T16:39:36;-4.10;1.00
8487;DHT22;4280;50.534;8.708;2022-12-18T16:42:09;-4.10;1.00
8487;DHT22;4280;50.534;8.708;2022-12-18T16:44:43;-4.10;1.00
8487;DHT22;4280;50.534;8.708;2022-12-18T16:47:16;-4.20;1.00
8487;DHT22;4280;50.534;8.708;2022-12-18T16:49:47;-4.10;1.00
8487;DHT22;4280;50.534;8.708;2022-12-18T16:52:19;-4.10;1.00
8487;DHT22;4280;50.534;8.708;2022-12-18T16:54:49;-4.10;1.00
8487;DHT22;4280;50.534;8.708;2022-12-18T16:57:20;-4.10;1.00
8487;DHT22;4280;50.534;8.708;2022-12-18T16:59:50;-4.10;1.00
8487;DHT22;4280;50.534;8.708;2022-12-18T17:02:25;-4.10;1.00
8487;DHT22;4280;50.534;8.708;2022-12-18T17:04:56;-4.00;1.00
8487;DHT22;4280;50.534;8.708;2022-12-18T17:07:26;-4.00;1.00
8487;DHT22;4280;50.534;8.708;2022-12-18T17:09:56;-4.00;1.00
8487;DHT22;4280;50.534;8.708;2022-12-18T17:12:26;-4.00;1.00
8487;DHT22;4280;50.534;8.708;2022-12-18T17:14:56;-4.00;1.00
8487;DHT22;4280;50.534;8.708;2022-12-18T17:17:29;-3.90;1.00
8487;DHT22;4280;50.534;8.708;2022-12-18T17:19:59;-4.00;1.00
8487;DHT22;4280;50.534;8.708;2022-12-18T17:22:29;-4.00;1.00
8487;DHT22;4280;50.534;8.708;2022-12-18T17:24:59;-3.90;1.00
8487;DHT22;4280;50.534;8.708;2022-12-18T17:27:29;-3.90;1.00
8487;DHT22;4280;50.534;8.708;2022-12-18T17:29:59;-3.90;1.00
8487;DHT22;4280;50.534;8.708;2022-12-18T17:32:31;-3.80;1.00
8487;DHT22;4280;50.534;8.708;2022-12-18T17:35:02;-3.70;1.00
8487;DHT22;4280;50.534;8.708;2022-12-18T17:37:34;-3.70;1.00
8487;DHT22;4280;50.534;8.708;2022-12-18T17:40:05;-3.70;1.00
8487;DHT22;4280;50.534;8.708;2022-12-18T17:42:36;-3.70;1.00
8487;DHT22;4280;50.534;8.708;2022-12-18T17:45:06;-3.70;1.00
8487;DHT22;4280;50.534;8.708;2022-12-18T17:47:40;-3.70;1.00
8487;DHT22;4280;50.534;8.708;2022-12-18T17:50:10;-3.70;1.00
8487;DHT22;4280;50.534;8.708;2022-12-18T17:52:39;-3.70;1.00
8487;DHT22;4280;50.534;8.708;2022-12-18T17:55:09;-3.70;1.00
8487;DHT22;4280;50.534;8.708;2022-12-18T17:57:39;-3.70;1.00
8487;DHT22;4280;50.534;8.708;2022-12-18T18:00:10;-3.60;1.00
8487;DHT22;4280;50.534;8.708;2022-12-18T18:02:45;-3.50;1.00
8487;DHT22;4280;50.534;8.708;2022-12-18T18:05:15;-3.50;1.00
8487;DHT22;4280;50.534;8.708;2022-12-18T18:07:45;-3.60;1.00
8487;DHT22;4280;50.534;8.708;2022-12-18T18:10:15;-3.60;1.00
8487;DHT22;4280;50.534;8.708;2022-12-18T18:12:45;-3.60;1.00
8487;DHT22;4280;50.534;8.708;2022-12-18T18:15:28;-3.50;1.00
8487;DHT22;4280;50.534;8.708;2022-12-18T18:18:01;-3.50;1.00
8487;DHT22;4280;50.534;8.708;2022-12-18T18:20:31;-3.50;1.00
8487;DHT22;4280;50.534;8.708;2022-12-18T18:23:01;-3.60;1.00
8487;DHT22;4280;50.534;8.708;2022-12-18T18:25:34;-3.60;1.00
8487;DHT22;4280;50.534;8.708;2022-12-18T18:28:04;-3.60;1.00
8487;DHT22;4280;50.534;8.708;2022-12-18T18:30:35;-3.70;1.00
8487;DHT22;4280;50.534;8.708;2022-12-18T18:33:07;-3.70;1.00
8487;DHT22;4280;50.534;8.708;2022-12-18T18:35:40;-3.70;1.00
8487;DHT22;4280;50.534;8.708;2022-12-18T18:38:18;-3.70;1.00
8487;DHT22;4280;50.534;8.708;2022-12-18T18:40:56;-3.70;1.00
8487;DHT22;4280;50.534;8.708;2022-12-18T18:43:27;-3.70;1.00
8487;DHT22;4280;50.534;8.708;2022-12-18T18:45:57;-3.60;1.00
8487;DHT22;4280;50.534;8.708;2022-12-18T18:48:32;-3.60;1.00
8487;DHT22;4280;50.534;8.708;2022-12-18T18:51:04;-3.60;1.00
8487;DHT22;4280;50.534;8.708;2022-12-18T18:53:35;-3.60;1.00
8487;DHT22;4280;50.534;8.708;2022-12-18T18:56:06;-3.60;1.00
8487;DHT22;4280;50.534;8.708;2022-12-18T18:58:57;-3.70;1.00
8487;DHT22;4280;50.534;8.708;2022-12-18T19:01:27;-3.70;1.00
8487;DHT22;4280;50.534;8.708;2022-12-18T19:04:00;-3.70;1.00
8487;DHT22;4280;50.534;8.708;2022-12-18T19:06:35;-3.70;1.00
8487;DHT22;4280;50.534;8.708;2022-12-18T19:09:05;-3.70;1.00
8487;DHT22;4280;50.534;8.708;2022-12-18T19:11:35;-3.70;1.00
8487;DHT22;4280;50.534;8.708;2022-12-18T19:14:40;-3.60;1.00
8487;DHT22;4280;50.534;8.708;2022-12-18T19:17:14;-3.60;1.00
8487;DHT22;4280;50.534;8.708;2022-12-18T19:19:56;-3.60;1.00
8487;DHT22;4280;50.534;8.708;2022-12-18T19:25:05;-3.50;1.00
8487;DHT22;4280;50.534;8.708;2022-12-18T19:27:42;-3.50;1.00
8487;DHT22;4280;50.534;8.708;2022-12-18T19:30:15;-3.50;1.00
8487;DHT22;4280;50.534;8.708;2022-12-18T19:32:48;-3.50;1.00
8487;DHT22;4280;50.534;8.708;2022-12-18T19:35:24;-3.40;1.00
8487;DHT22;4280;50.534;8.708;2022-12-18T19:37:57;-3.40;1.00
8487;DHT22;4280;50.534;8.708;2022-12-18T19:40:30;-3.40;1.00
8487;DHT22;4280;50.534;8.708;2022-12-18T19:43:03;-3.40;1.00
8487;DHT22;4280;50.534;8.708;2022-12-18T19:45:37;-3.40;1.00
8487;DHT22;4280;50.534;8.708;2022-12-18T19:48:10;-3.40;1.00
8487;DHT22;4280;50.534;8.708;2022-12-18T19:50:46;-3.40;1.00
8487;DHT22;4280;50.534;8.708;2022-12-18T19:53:18;-3.40;1.00